Time;durP1;ratioP1;P1;durP2;ratioP2;P2;SDS_P1;SDS_P2;PMS_P1;PMS_P2;Temp;Humidity;BMP_temperature;BMP_pressure;BME280_temperature;BME280_humidity;BME280_pressure;Samples;Min_cycle;Max_cycle;Signal;HPM_P1;HPM_P2
2022/06/12 00:00:19;;;;;;;5.32;3.55;;;;;;;19.91;63.89;100878.16;5043420;28;20066;-67
2022/06/12 00:02:45;;;;;;;5.40;3.53;;;;;;;19.99;64.45;100900.91;5045077;28;20080;-68
2022/06/12 00:05:15;;;;;;;4.75;3.20;;;;;;;19.92;64.33;100904.06;5034413;28;20081;-68
2022/06/12 00:07:42;;;;;;;5.20;3.45;;;;;;;19.84;65.13;100898.41;5049923;28;20072;-67
2022/06/12 00:10:11;;;;;;;4.32;3.42;;;;;;;19.79;65.30;100881.78;5056526;28;20056;-67
2022/06/12 00:12:40;;;;;;;5.57;3.53;;;;;;;19.91;65.26;100898.78;5056153;28;20480;-67
2022/06/12 00:15:09;;;;;;;6.60;3.53;;;;;;;19.82;65.25;100889.63;5051269;28;20064;-67
2022/06/12 00:17:35;;;;;;;4.78;3.30;;;;;;;19.83;65.49;100888.63;5057924;28;20055;-68
2022/06/12 00:20:02;;;;;;;6.03;3.47;;;;;;;19.83;65.53;100894.00;5064497;28;20135;-67
2022/06/12 00:22:29;;;;;;;5.35;3.22;;;;;;;19.83;66.12;100896.69;5054620;28;20055;-67
2022/06/12 00:24:55;;;;;;;4.68;3.53;;;;;;;19.86;66.17;100888.38;5062774;28;20060;-67
2022/06/12 00:27:22;;;;;;;6.07;3.78;;;;;;;19.86;66.40;100890.22;5062811;28;20095;-67
2022/06/12 00:29:51;;;;;;;5.57;3.22;;;;;;;19.93;66.38;100896.84;5057500;28;20110;-67
2022/06/12 00:32:18;;;;;;;5.78;3.58;;;;;;;19.98;66.48;100899.19;5057871;28;20493;-67
2022/06/12 00:34:51;;;;;;;7.07;3.80;;;;;;;19.98;66.43;100888.44;5059921;28;20060;-67
2022/06/12 00:37:21;;;;;;;5.32;3.30;;;;;;;19.81;66.44;100876.31;5057208;28;20139;-66
2022/06/12 00:39:51;;;;;;;4.82;3.33;;;;;;;19.82;66.71;100889.63;5059690;28;20408;-69
2022/06/12 00:42:33;;;;;;;5.68;3.70;;;;;;;19.84;67.02;100898.41;5061140;28;20708;-67
2022/06/12 00:45:02;;;;;;;5.97;3.47;;;;;;;19.80;66.90;100894.25;5056941;28;20908;-67
2022/06/12 00:47:29;;;;;;;5.03;3.58;;;;;;;19.79;67.19;100889.84;5061401;28;20049;-66
2022/06/12 00:49:59;;;;;;;4.95;3.60;;;;;;;19.77;67.19;100893.63;5055230;28;20452;-68
2022/06/12 00:52:35;;;;;;;;;;;;;;;19.80;67.39;100901.47;5057613;28;20048;-67
2022/06/12 00:55:09;;;;;;;4.57;3.63;;;;;;;19.78;66.89;100898.91;5050706;28;19925;-70
2022/06/12 00:57:36;;;;;;;8.50;4.22;;;;;;;19.76;66.89;100894.59;5053965;28;20052;-67
2022/06/12 01:00:08;;;;;;;5.05;4.20;;;;;;;19.84;66.71;100911.84;5045897;28;20045;-68
2022/06/12 01:02:37;;;;;;;5.07;4.15;;;;;;;19.82;66.43;100905.75;5057673;28;20646;-67
2022/06/12 01:07:58;;;;;;;5.38;4.00;;;;;;;19.74;67.07;100910.84;5056389;28;20080;-67
2022/06/12 01:10:28;;;;;;;5.28;3.88;;;;;;;19.69;66.91;100917.53;5050553;28;20094;-67
2022/06/12 01:12:59;;;;;;;5.38;4.10;;;;;;;19.67;67.29;100911.44;5050903;28;20076;-66
2022/06/12 01:15:34;;;;;;;6.78;4.53;;;;;;;19.54;67.85;100908.81;5058662;28;20094;-67
2022/06/12 01:18:02;;;;;;;6.82;4.43;;;;;;;19.38;68.45;100900.19;5057984;28;20078;-67
2022/06/12 01:20:35;;;;;;;5.50;4.20;;;;;;;19.33;69.13;100905.91;5055584;28;20049;-67
2022/06/12 01:23:11;;;;;;;6.13;4.60;;;;;;;19.27;69.54;100915.28;5061155;28;20424;-67
2022/06/12 01:26:03;;;;;;;7.63;4.90;;;;;;;19.21;69.79;100913.03;5053458;28;20045;-67
2022/06/12 01:28:50;;;;;;;6.50;4.40;;;;;;;19.19;69.99;100917.69;5063645;28;20053;-67
2022/06/12 01:31:35;;;;;;;6.25;4.40;;;;;;;19.16;70.24;100920.59;5061777;28;20500;-68
2022/06/12 01:34:15;;;;;;;6.43;4.68;;;;;;;19.13;70.75;100914.59;5058945;28;20061;-67
2022/06/12 01:36:53;;;;;;;;;;;;;;;19.19;70.34;100919.53;5060600;28;20049;-67
2022/06/12 01:39:25;;;;;;;5.70;4.20;;;;;;;19.18;70.37;100918.66;5058635;28;20343;-67
2022/06/12 01:42:05;;;;;;;5.03;4.05;;;;;;;19.14;70.78;100925.22;5061673;28;20138;-67
2022/06/12 01:44:44;;;;;;;5.32;4.07;;;;;;;19.08;71.28;100920.31;5057047;28;20048;-66
2022/06/12 01:47:14;;;;;;;4.93;4.15;;;;;;;19.05;71.39;100912.47;5057638;28;20083;-68
2022/06/12 01:49:49;;;;;;;4.88;4.38;;;;;;;19.03;71.78;100922.50;5047466;28;20041;-68
2022/06/12 01:52:23;;;;;;;5.30;4.18;;;;;;;18.98;71.77;100903.19;5052440;28;20045;-68
2022/06/12 01:55:02;;;;;;;4.68;3.85;;;;;;;19.04;72.05;100909.94;5061715;28;20587;-68
2022/06/12 01:57:40;;;;;;;4.00;3.60;;;;;;;19.01;72.17;100916.38;5058199;28;20572;-68
2022/06/12 02:00:12;;;;;;;4.45;3.85;;;;;;;18.97;72.23;100920.25;5060434;28;20457;-67
2022/06/12 02:03:04;;;;;;;4.68;3.83;;;;;;;18.90;72.50;100903.72;5058616;28;20050;-67
2022/06/12 02:05:37;;;;;;;8.10;4.38;;;;;;;18.88;72.93;100918.25;5050477;28;20056;-67
2022/06/12 02:08:17;;;;;;;6.60;4.30;;;;;;;18.92;72.93;100919.72;5057662;28;20128;-66
2022/06/12 02:10:49;;;;;;;7.25;4.25;;;;;;;18.98;72.48;100916.59;5052364;28;20047;-66
2022/06/12 02:13:38;;;;;;;5.20;4.40;;;;;;;18.89;73.58;100923.47;5053523;28;20708;-67
2022/06/12 02:16:29;;;;;;;5.80;4.65;;;;;;;18.82;73.80;100921.38;5057737;28;20547;-66
2022/06/12 02:19:13;;;;;;;5.53;4.80;;;;;;;18.76;73.98;100928.03;5055821;28;20098;-66
2022/06/12 02:21:52;;;;;;;5.28;4.45;;;;;;;18.65;74.20;100916.38;5047490;28;20377;-67
2022/06/12 02:24:31;;;;;;;5.47;4.43;;;;;;;18.56;74.52;100929.47;5058738;28;20094;-67
2022/06/12 02:27:05;;;;;;;5.03;4.57;;;;;;;18.48;75.32;100923.78;5048741;28;20569;-66
2022/06/12 02:29:37;;;;;;;6.10;4.88;;;;;;;18.37;75.94;100923.69;5054286;28;20106;-67
2022/06/12 02:32:20;;;;;;;7.93;6.75;;;;;;;18.30;76.55;100925.06;5042616;28;20111;-67
2022/06/12 02:34:59;;;;;;;5.57;5.00;;;;;;;18.29;76.62;100922.50;5048527;28;20047;-66
2022/06/12 02:37:33;;;;;;;6.15;4.75;;;;;;;18.20;76.93;100913.28;5047552;28;20123;-68
2022/06/12 02:40:07;;;;;;;7.75;5.00;;;;;;;18.17;77.09;100919.72;5053302;28;20045;-67
2022/06/12 02:42:40;;;;;;;6.03;4.65;;;;;;;18.22;77.21;100924.78;5058688;28;20432;-67
2022/06/12 02:45:09;;;;;;;7.60;4.60;;;;;;;18.23;77.17;100926.50;5050831;28;20076;-67
2022/06/12 02:47:38;;;;;;;5.90;4.72;;;;;;;18.20;77.13;100924.00;5051072;28;20044;-67
2022/06/12 02:50:08;;;;;;;7.32;4.70;;;;;;;18.02;77.93;100925.28;5047924;28;20128;-67
2022/06/12 02:53:02;;;;;;;8.43;4.95;;;;;;;17.91;78.95;100920.69;5053102;28;20160;-67
2022/06/12 02:56:11;;;;;;;5.50;4.93;;;;;;;17.87;79.20;100917.34;5054286;28;20096;-66
2022/06/12 02:58:45;;;;;;;6.35;5.03;;;;;;;17.93;79.12;100928.63;5056902;28;20090;-66
2022/06/12 03:01:16;;;;;;;6.57;5.60;;;;;;;17.85;78.82;100916.59;5057847;28;20048;-67
2022/06/12 03:04:06;;;;;;;7.90;6.00;;;;;;;17.88;78.86;100929.78;5044885;28;20041;-67
2022/06/12 03:06:34;;;;;;;12.03;6.60;;;;;;;17.76;79.14;100936.00;5047501;28;20072;-68
2022/06/12 03:09:02;;;;;;;6.80;5.90;;;;;;;17.67;79.74;100912.50;5051416;28;21005;-68
2022/06/12 03:11:33;;;;;;;6.80;5.88;;;;;;;17.82;79.58;100940.06;5046775;28;20049;-66
2022/06/12 03:14:01;;;;;;;7.05;5.97;;;;;;;17.82;79.38;100932.03;5052831;28;20546;-67
2022/06/12 03:16:31;;;;;;;7.88;6.50;;;;;;;17.82;78.78;100940.06;5049355;28;20112;-66
2022/06/12 03:19:04;;;;;;;;;;;;;;;17.75;79.60;100944.13;5047897;28;20068;-67
2022/06/12 03:21:43;;;;;;;6.65;6.00;;;;;;;17.64;80.07;100947.53;5055255;28;19921;-67
2022/06/12 03:24:34;;;;;;;10.68;6.53;;;;;;;17.58;80.53;100955.09;5046492;28;20045;-67
2022/06/12 03:27:10;;;;;;;8.45;6.18;;;;;;;17.63;80.75;100953.81;5046337;28;20099;-67
2022/06/12 03:29:55;;;;;;;10.30;6.20;;;;;;;17.53;80.08;100931.28;5054911;28;20040;-67
2022/06/12 03:32:44;;;;;;;7.68;6.43;;;;;;;17.60;79.98;100950.50;5046667;28;20056;-66
2022/06/12 03:35:43;;;;;;;6.47;5.78;;;;;;;17.59;80.44;100957.69;5048561;28;20064;-67
2022/06/12 03:38:15;;;;;;;10.30;6.38;;;;;;;17.58;80.52;100963.13;5050429;28;20561;-66
2022/06/12 03:41:03;;;;;;;9.15;6.22;;;;;;;17.55;80.87;100956.16;5048285;28;20045;-67
2022/06/12 03:43:42;;;;;;;7.70;6.18;;;;;;;17.58;80.53;100955.94;5045481;28;20052;-66
2022/06/12 03:46:32;;;;;;;9.88;6.30;;;;;;;17.58;80.49;100963.13;5049627;28;20557;-68
2022/06/12 03:49:07;;;;;;;7.13;6.43;;;;;;;17.53;80.85;100963.44;5047815;28;20053;-66
2022/06/12 03:51:40;;;;;;;7.45;6.20;;;;;;;17.47;81.46;100963.84;5045819;28;20084;-67
2022/06/12 03:54:19;;;;;;;8.32;5.80;;;;;;;17.42;82.06;100971.31;5047447;28;20084;-67
2022/06/12 04:00:18;;;;;;;7.00;6.30;;;;;;;17.54;81.22;100968.69;5050057;28;20428;-67
2022/06/12 04:03:08;;;;;;;8.73;6.57;;;;;;;17.37;81.63;100941.31;5039063;28;20082;-67
2022/06/12 04:05:52;;;;;;;7.13;5.78;;;;;;;17.50;81.94;100972.53;5050480;28;20060;-67
2022/06/12 04:08:32;;;;;;;7.57;5.82;;;;;;;17.47;82.15;100969.22;5049323;28;20053;-66
2022/06/12 04:10:59;;;;;;;8.45;6.38;;;;;;;17.47;81.81;100970.03;5043086;28;20073;-67
2022/06/12 04:13:26;;;;;;;7.50;6.35;;;;;;;17.47;82.05;100974.56;5047090;28;20045;-66
2022/06/12 04:15:58;;;;;;;8.90;6.70;;;;;;;17.42;82.14;100972.19;5047196;28;20041;-66
2022/06/12 04:18:27;;;;;;;9.27;7.00;;;;;;;17.43;82.14;100975.72;5046746;28;20492;-67
2022/06/12 04:21:01;;;;;;;8.20;6.38;;;;;;;17.45;82.12;100966.63;5051818;28;20136;-66
2022/06/12 04:23:46;;;;;;;7.10;6.40;;;;;;;17.49;82.25;100973.47;5039823;28;20056;-67
2022/06/12 04:26:35;;;;;;;8.95;6.40;;;;;;;17.49;82.31;100976.16;5044339;28;20040;-68
2022/06/12 04:29:17;;;;;;;7.80;6.82;;;;;;;17.51;82.47;100968.88;5057224;28;20128;-66
2022/06/12 04:31:47;;;;;;;10.38;6.80;;;;;;;17.52;82.40;100964.38;5056267;28;20048;-66
2022/06/12 04:34:21;;;;;;;8.93;6.15;;;;;;;17.63;82.49;100967.19;5048695;28;20148;-68
2022/06/12 04:36:54;;;;;;;8.05;6.22;;;;;;;17.64;81.95;100958.22;5044798;28;20219;-66
2022/06/12 04:39:24;;;;;;;7.85;6.63;;;;;;;17.74;81.98;100971.88;5046416;28;20061;-66
2022/06/12 04:41:51;;;;;;;8.23;6.30;;;;;;;17.72;82.00;100953.22;5043430;28;20505;-67
2022/06/12 04:44:18;;;;;;;8.45;6.00;;;;;;;17.89;81.57;100965.47;5044694;28;20061;-67
2022/06/12 04:46:47;;;;;;;6.75;6.05;;;;;;;18.01;81.44;100969.13;5044491;28;20102;-66
2022/06/12 04:49:18;;;;;;;6.85;6.07;;;;;;;18.10;81.02;100969.34;5042752;28;20052;-66
2022/06/12 04:51:46;;;;;;;7.55;6.45;;;;;;;18.22;80.04;100959.63;5041921;28;20049;-67
2022/06/12 04:54:13;;;;;;;6.82;6.07;;;;;;;18.27;79.62;100946.72;5042286;28;20048;-67
2022/06/12 04:56:41;;;;;;;9.35;6.35;;;;;;;18.46;79.18;100967.75;5037148;28;20873;-67
2022/06/12 04:59:10;;;;;;;7.35;6.45;;;;;;;18.50;78.77;100956.69;5045810;28;20060;-67
2022/06/12 05:01:36;;;;;;;10.55;6.45;;;;;;;18.60;78.35;100962.28;5042917;28;20476;-70
2022/06/12 05:04:05;;;;;;;8.77;6.45;;;;;;;18.67;78.20;100968.09;5046595;28;20045;-66
2022/06/12 05:06:33;;;;;;;6.72;5.88;;;;;;;18.63;77.91;100954.03;5044889;28;20134;-67
2022/06/12 05:09:01;;;;;;;6.75;6.13;;;;;;;18.80;77.72;100975.16;5043381;28;20469;-67
2022/06/12 05:11:28;;;;;;;8.55;6.15;;;;;;;18.85;77.51;100961.41;5047412;28;20086;-67
2022/06/12 05:13:55;;;;;;;10.45;6.88;;;;;;;18.92;76.89;100960.84;5044173;28;20498;-67
2022/06/12 05:16:41;;;;;;;9.18;6.88;;;;;;;18.94;76.88;100968.78;5059607;28;20519;-67
2022/06/12 05:19:14;;;;;;;7.35;6.57;;;;;;;18.97;76.57;100965.88;5044190;28;20114;-67
2022/06/12 05:21:42;;;;;;;8.18;6.85;;;;;;;19.08;76.00;100967.75;5042961;28;20049;-69
2022/06/12 05:24:09;;;;;;;10.27;6.47;;;;;;;19.08;76.01;100967.75;5041306;28;20056;-66
2022/06/12 05:26:41;;;;;;;8.98;6.55;;;;;;;18.94;76.72;100950.00;5046228;28;20567;-67
2022/06/12 05:29:13;;;;;;;8.25;6.57;;;;;;;18.99;77.47;100966.63;5046573;28;20123;-68
2022/06/12 05:31:40;;;;;;;8.27;6.82;;;;;;;19.03;77.35;100975.31;5045967;28;20045;-67
2022/06/12 05:34:07;;;;;;;7.03;5.82;;;;;;;19.07;76.99;100974.09;5042177;28;20052;-67
2022/06/12 05:36:33;;;;;;;8.38;6.20;;;;;;;19.14;76.89;100978.91;5044613;28;20072;-66
2022/06/12 05:39:00;;;;;;;8.55;6.50;;;;;;;19.20;76.84;100966.88;5046396;28;20076;-66
2022/06/12 05:41:27;;;;;;;7.25;6.55;;;;;;;19.25;76.53;100964.69;5044059;28;20298;-67
2022/06/12 05:43:53;;;;;;;7.85;6.68;;;;;;;19.39;75.68;100966.34;5045691;28;20629;-66
2022/06/12 05:46:20;;;;;;;10.70;7.82;;;;;;;19.45;75.00;100971.28;5045293;28;20408;-67
2022/06/12 05:48:47;;;;;;;7.57;6.18;;;;;;;19.52;73.97;100972.53;5042224;28;20064;-68
2022/06/12 05:51:17;;;;;;;7.68;6.40;;;;;;;19.64;73.91;100973.47;5048020;28;20394;-69
2022/06/12 05:53:44;;;;;;;8.32;6.20;;;;;;;19.75;73.39;100974.38;5044826;28;20041;-67
2022/06/12 05:56:16;;;;;;;9.00;6.47;;;;;;;19.73;71.55;100954.81;5042237;28;20060;-68
2022/06/12 05:58:43;;;;;;;6.38;5.78;;;;;;;19.93;71.45;100970.28;5047199;28;20052;-67
2022/06/12 06:01:14;;;;;;;7.95;5.45;;;;;;;20.01;71.14;100964.28;5046452;28;20061;-67
2022/06/12 06:03:41;;;;;;;5.82;5.03;;;;;;;20.16;70.91;100962.25;5042639;28;20053;-65
2022/06/12 06:06:14;;;;;;;8.45;5.63;;;;;;;20.30;69.98;100954.81;5042621;28;20061;-67
2022/06/12 06:08:40;;;;;;;6.38;5.40;;;;;;;20.51;69.26;100959.50;5045882;28;20156;-66
2022/06/12 06:11:07;;;;;;;7.97;5.60;;;;;;;20.62;67.71;100949.59;5042989;28;20698;-67
2022/06/12 06:13:34;;;;;;;6.28;5.10;;;;;;;20.81;67.48;100977.72;5043723;28;20115;-67
2022/06/12 06:16:02;;;;;;;6.72;4.93;;;;;;;20.93;67.39;100964.16;5044707;28;20064;-67
2022/06/12 06:18:28;;;;;;;6.95;5.07;;;;;;;21.23;65.78;100965.34;5044218;28;20057;-67
2022/06/12 06:20:55;;;;;;;7.18;5.40;;;;;;;21.53;63.76;100956.56;5041120;28;20073;-67
2022/06/12 06:23:22;;;;;;;8.27;5.15;;;;;;;21.88;63.00;100967.88;5044077;28;20103;-66
2022/06/12 06:25:49;;;;;;;7.65;5.07;;;;;;;22.22;61.40;100965.03;5043739;28;20049;-68
2022/06/12 06:28:16;;;;;;;5.20;4.40;;;;;;;22.64;60.59;100972.09;5042059;28;20525;-68
2022/06/12 06:30:43;;;;;;;4.85;4.43;;;;;;;23.12;57.88;100948.94;5045465;28;20060;-66
2022/06/12 06:33:10;;;;;;;5.93;4.10;;;;;;;23.86;55.65;100966.38;5048071;28;20640;-67
2022/06/12 06:35:38;;;;;;;6.28;4.38;;;;;;;24.24;53.89;100970.06;5040855;28;20045;-67
2022/06/12 06:38:05;;;;;;;4.72;4.25;;;;;;;24.25;54.48;100972.59;5044667;28;20110;-67
2022/06/12 06:40:34;;;;;;;5.63;4.50;;;;;;;24.45;52.89;100968.00;5043454;28;20044;-68
2022/06/12 06:43:06;;;;;;;7.55;4.47;;;;;;;24.00;53.22;100965.94;5041849;28;20092;-67
2022/06/12 06:48:20;;;;;;;6.90;3.95;;;;;;;24.02;54.29;100961.22;5041182;28;20216;-68
2022/06/12 06:50:46;;;;;;;5.63;3.25;;;;;;;24.68;52.01;100963.06;5042555;28;20140;-68
2022/06/12 06:53:13;;;;;;;5.95;3.30;;;;;;;25.29;49.86;100951.63;5045201;28;20107;-67
2022/06/12 06:55:41;;;;;;;7.45;4.22;;;;;;;25.69;48.65;100952.03;5044706;28;20141;-68
2022/06/12 06:58:15;;;;;;;4.22;3.80;;;;;;;25.68;48.04;100938.63;5043813;28;20057;-68
2022/06/12 07:00:44;;;;;;;5.25;3.67;;;;;;;26.08;46.83;100963.41;5044501;28;20466;-67
2022/06/12 07:03:12;;;;;;;5.53;3.50;;;;;;;26.27;46.09;100961.50;5044040;28;20165;-67
2022/06/12 07:05:40;;;;;;;4.65;3.25;;;;;;;26.26;46.07;100946.22;5046181;28;20061;-67
2022/06/12 07:08:07;;;;;;;5.88;3.10;;;;;;;26.59;44.76;100969.88;5042463;28;20117;-67
2022/06/12 07:10:35;;;;;;;5.18;3.47;;;;;;;26.64;43.91;100958.50;5043572;28;20057;-67
2022/06/12 07:13:03;;;;;;;7.22;3.00;;;;;;;26.58;43.55;100942.88;5042844;28;20130;-67
2022/06/12 07:15:31;;;;;;;5.13;3.03;;;;;;;26.55;43.93;100971.19;5041716;28;20139;-67
2022/06/12 07:17:58;;;;;;;6.68;3.08;;;;;;;26.69;43.42;100965.16;5045257;28;20051;-67
2022/06/12 07:20:30;;;;;;;5.05;2.88;;;;;;;26.64;44.34;100951.19;5044567;28;20490;-67
2022/06/12 07:22:57;;;;;;;6.28;3.22;;;;;;;26.17;44.70;100972.44;5041357;28;20049;-68
2022/06/12 07:25:24;;;;;;;6.15;3.50;;;;;;;25.58;45.92;100968.53;5043207;28;20049;-69
2022/06/12 07:27:51;;;;;;;7.10;3.00;;;;;;;25.35;47.31;100949.13;5043532;28;20053;-67
2022/06/12 07:30:25;;;;;;;5.40;2.90;;;;;;;25.80;45.38;100959.97;5040246;28;20078;-67
2022/06/12 07:32:52;;;;;;;5.82;2.88;;;;;;;26.27;45.19;100958.78;5045346;28;20252;-67
2022/06/12 07:35:19;;;;;;;6.50;2.95;;;;;;;26.72;43.39;100953.97;5042583;28;20045;-67
2022/06/12 07:37:47;;;;;;;4.60;2.53;;;;;;;27.03;42.18;100948.00;5041645;28;20083;-67
2022/06/12 07:40:25;;;;;;;6.57;2.85;;;;;;;26.98;43.62;100947.66;5042792;28;20087;-67
2022/06/12 07:42:52;;;;;;;4.40;2.70;;;;;;;27.19;41.84;100953.50;5019143;28;20053;-67
2022/06/12 07:45:19;;;;;;;4.93;2.50;;;;;;;27.42;41.17;100954.56;5042035;28;20044;-68
2022/06/12 07:47:46;;;;;;;3.97;2.53;;;;;;;27.44;43.61;100947.06;5038408;28;20134;-68
2022/06/12 07:50:13;;;;;;;5.32;3.38;;;;;;;26.36;46.02;100955.97;5041804;28;20114;-71
2022/06/12 07:52:42;;;;;;;4.60;3.05;;;;;;;25.48;48.74;100949.63;5038453;28;20152;-69
2022/06/12 07:55:12;;;;;;;5.43;3.00;;;;;;;24.94;51.04;100947.00;5039691;28;20126;-69
2022/06/12 07:57:40;;;;;;;6.85;2.95;;;;;;;24.39;50.68;100925.28;5044713;28;20059;-68
2022/06/12 08:00:08;;;;;;;6.75;3.15;;;;;;;24.60;51.24;100949.41;5045812;28;20045;-68
2022/06/12 08:02:35;;;;;;;4.50;2.60;;;;;;;24.96;48.80;100937.72;5041493;28;20115;-68
2022/06/12 08:05:03;;;;;;;6.18;2.88;;;;;;;25.27;46.42;100899.44;5044754;28;20053;-68
2022/06/12 08:07:29;;;;;;;4.78;2.20;;;;;;;26.23;44.17;100946.53;5042915;28;20048;-68
2022/06/12 08:09:56;;;;;;;4.28;2.20;;;;;;;26.39;43.61;100942.09;5038443;28;20049;-69
2022/06/12 08:12:23;;;;;;;3.97;2.15;;;;;;;26.62;42.66;100938.78;5042446;28;20056;-68
2022/06/12 08:14:49;;;;;;;5.45;2.20;;;;;;;26.92;42.58;100944.53;5042453;28;20053;-68
2022/06/12 08:17:16;;;;;;;5.30;2.20;;;;;;;26.92;41.85;100931.97;5039560;28;20063;-68
2022/06/12 08:22:31;;;;;;;7.80;2.58;;;;;;;26.27;43.06;100937.91;5041506;28;20132;-67
2022/06/12 08:24:58;;;;;;;5.55;2.35;;;;;;;26.48;42.79;100945.69;5039865;28;20077;-67
2022/06/12 08:27:25;;;;;;;5.03;2.30;;;;;;;26.62;43.30;100942.38;5043610;28;20091;-67
2022/06/12 08:29:51;;;;;;;4.65;2.35;;;;;;;26.56;43.08;100948.47;5044559;28;20053;-67
2022/06/12 08:32:21;;;;;;;4.90;1.92;;;;;;;26.26;43.51;100954.38;5041707;28;20049;-67
2022/06/12 08:34:53;;;;;;;4.30;2.00;;;;;;;26.04;44.65;100934.88;5034127;28;20053;-67
2022/06/12 08:37:24;;;;;;;3.13;1.85;;;;;;;26.47;43.74;100949.41;5046000;28;20488;-67
2022/06/12 08:39:51;;;;;;;4.38;2.30;;;;;;;26.81;42.68;100939.41;5046250;28;20450;-68
2022/06/12 08:42:45;;;;;;;4.78;2.13;;;;;;;26.57;42.83;100946.59;5042400;28;20048;-68
2022/06/12 08:45:16;;;;;;;6.15;2.17;;;;;;;26.28;43.94;100949.63;5043045;28;20079;-67
2022/06/12 08:48:00;;;;;;;4.93;2.38;;;;;;;26.08;44.03;100929.97;5046954;28;20057;-67
2022/06/12 08:50:31;;;;;;;5.80;2.40;;;;;;;26.33;43.80;100942.72;5039853;28;20401;-67
2022/06/12 08:53:15;;;;;;;5.88;2.67;;;;;;;26.34;43.03;100947.13;5046463;28;20053;-67
2022/06/12 08:55:50;;;;;;;;;;;;;;;26.05;44.47;100939.28;5040693;28;20098;-68
2022/06/12 08:58:24;;;;;;;8.57;2.10;;;;;;;25.56;44.86;100931.72;5043668;28;19925;-68
2022/06/12 09:00:51;;;;;;;5.10;2.00;;;;;;;25.71;45.58;100927.47;5047104;28;20053;-67
2022/06/12 09:03:22;;;;;;;4.97;2.03;;;;;;;26.13;44.41;100922.22;5047714;28;20044;-70
2022/06/12 09:06:07;;;;;;;4.05;1.90;;;;;;;26.27;43.13;100920.78;5042591;28;20445;-67
2022/06/12 09:08:46;;;;;;;3.95;1.95;;;;;;;25.93;43.89;100918.84;5046446;28;20424;-67
2022/06/12 09:11:33;;;;;;;;;;;;;;;26.28;43.41;100922.47;5045404;28;20058;-67
2022/06/12 09:14:54;;;;;;;3.40;1.83;;;;;;;26.69;42.00;100918.97;5042240;28;20557;-67
2022/06/12 09:17:49;;;;;;;6.78;1.98;;;;;;;26.60;42.71;100917.25;4966342;28;20525;-67
2022/06/12 09:20:40;;;;;;;3.33;1.77;;;;;;;26.34;43.23;100900.97;5042959;28;20518;-67
2022/06/12 09:23:12;;;;;;;5.10;1.75;;;;;;;26.37;43.26;100908.81;5046749;28;20061;-67
2022/06/12 09:25:56;;;;;;;6.63;2.40;;;;;;;26.33;43.04;100904.69;5051879;28;20048;-67
2022/06/12 09:28:31;;;;;;;5.22;2.50;;;;;;;26.39;42.66;100906.78;5045157;28;20041;-68
2022/06/12 09:31:10;;;;;;;5.60;2.15;;;;;;;26.32;42.78;100897.56;5047059;28;20057;-67
2022/06/12 09:33:58;;;;;;;5.50;2.03;;;;;;;26.45;43.09;100910.69;5047365;28;20194;-68
2022/06/12 09:36:25;;;;;;;4.80;2.00;;;;;;;26.36;42.19;100901.66;5043268;28;20049;-67
2022/06/12 09:39:13;;;;;;;7.20;1.92;;;;;;;25.86;43.21;100912.34;5048261;28;20529;-67
2022/06/12 09:41:54;;;;;;;6.10;1.80;;;;;;;25.73;43.54;100901.91;5050261;28;20060;-67
2022/06/12 09:44:39;;;;;;;3.67;1.58;;;;;;;25.86;43.40;100906.91;5043223;28;20104;-67
2022/06/12 09:47:21;;;;;;;5.57;1.83;;;;;;;25.83;43.41;100899.94;5047810;28;20496;-67
2022/06/12 09:50:29;;;;;;;3.63;1.60;;;;;;;25.59;44.07;100897.00;5053914;28;20134;-67
2022/06/12 09:53:37;;;;;;;4.97;2.00;;;;;;;25.61;44.10;100895.00;5043809;28;20063;-66
2022/06/12 09:56:12;;;;;;;3.08;1.90;;;;;;;25.72;43.36;100885.78;4990110;28;20053;-66
2022/06/12 09:58:58;;;;;;;5.85;2.10;;;;;;;25.69;43.02;100881.53;5047901;28;20063;-68
2022/06/12 10:01:31;;;;;;;4.32;2.13;;;;;;;25.86;43.79;100886.06;5049389;28;20098;-67
2022/06/12 10:04:01;;;;;;;3.92;1.90;;;;;;;25.88;43.32;100883.19;5045583;28;20446;-68
2022/06/12 10:06:42;;;;;;;5.07;1.90;;;;;;;26.04;42.99;100877.88;5027217;28;20053;-68
2022/06/12 10:09:17;;;;;;;2.30;1.60;;;;;;;26.38;42.62;100879.78;5056279;28;20429;-68
2022/06/12 10:12:03;;;;;;;5.53;2.03;;;;;;;26.60;42.70;100881.94;5047718;28;20503;-67
2022/06/12 10:14:45;;;;;;;3.22;1.60;;;;;;;26.86;41.63;100884.56;5048244;28;20057;-69
2022/06/12 10:17:20;;;;;;;4.45;1.95;;;;;;;26.83;41.64;100855.00;5044099;28;20044;-68
2022/06/12 10:19:49;;;;;;;4.05;1.70;;;;;;;26.74;41.99;100872.31;5019406;28;20261;-69
2022/06/12 10:22:29;;;;;;;4.60;2.00;;;;;;;26.72;41.81;100868.91;5043901;28;20071;-67
2022/06/12 10:24:59;;;;;;;4.78;1.55;;;;;;;26.61;42.29;100856.44;5057598;28;20579;-67
2022/06/12 10:27:37;;;;;;;3.95;1.95;;;;;;;26.45;42.15;100853.66;5044927;28;20136;-67
2022/06/12 10:30:04;;;;;;;4.40;1.65;;;;;;;26.34;42.41;100843.09;5052309;28;20044;-67
2022/06/12 10:32:53;;;;;;;4.50;1.80;;;;;;;26.26;42.41;100856.63;5045573;28;20045;-67
2022/06/12 10:35:23;;;;;;;3.13;1.73;;;;;;;26.49;41.66;100855.06;5044028;28;20045;-67
2022/06/12 10:37:51;;;;;;;3.45;2.00;;;;;;;26.58;41.66;100856.81;5047974;28;20059;-67
2022/06/12 10:40:24;;;;;;;4.35;2.10;;;;;;;26.52;41.21;100850.16;5048345;28;20118;-67
2022/06/12 10:43:19;;;;;;;3.70;1.80;;;;;;;26.70;40.55;100857.34;5043814;28;20572;-67
2022/06/12 10:46:00;;;;;;;5.22;1.45;;;;;;;26.62;40.23;100831.00;5048732;28;20311;-66
2022/06/12 10:48:30;;;;;;;4.07;1.83;;;;;;;26.96;40.48;100835.53;5045642;28;20396;-68
2022/06/12 10:51:20;;;;;;;3.28;1.80;;;;;;;27.29;39.62;100809.22;5045419;28;20527;-67
2022/06/12 10:53:56;;;;;;;5.63;2.30;;;;;;;27.67;39.61;100832.19;5044820;28;20444;-67
2022/06/12 10:56:30;;;;;;;3.45;1.67;;;;;;;27.62;39.89;100829.97;5049823;28;20048;-67
2022/06/12 10:59:21;;;;;;;4.68;2.17;;;;;;;27.16;39.99;100812.44;5042836;28;23910;-67
2022/06/12 11:02:06;;;;;;;3.03;1.60;;;;;;;27.22;39.04;100831.66;5044661;28;20574;-67
2022/06/12 11:04:47;;;;;;;2.30;1.60;;;;;;;27.01;38.74;100800.53;5050792;28;20072;-69
2022/06/12 11:07:25;;;;;;;2.33;1.60;;;;;;;27.32;37.78;100815.16;5042640;28;20041;-67
2022/06/12 11:10:11;;;;;;;4.68;1.63;;;;;;;27.39;38.64;100807.19;5048656;28;20048;-69
2022/06/12 11:12:54;;;;;;;3.95;1.70;;;;;;;27.48;37.24;100812.44;5045758;28;20114;-67
2022/06/12 11:15:45;;;;;;;4.38;1.77;;;;;;;27.87;37.60;100804.41;5044702;28;20045;-67
2022/06/12 11:18:50;;;;;;;5.10;1.90;;;;;;;28.02;35.98;100806.44;5046069;28;20053;-67
2022/06/12 11:21:26;;;;;;;3.70;1.77;;;;;;;27.93;37.09;100806.44;4975292;28;20559;-67
2022/06/12 11:24:13;;;;;;;5.03;1.80;;;;;;;27.59;37.38;100808.53;5039374;28;20497;-68
2022/06/12 11:27:01;;;;;;;3.22;1.70;;;;;;;27.52;37.31;100805.66;5049601;28;20069;-67
2022/06/12 11:29:51;;;;;;;3.60;1.88;;;;;;;27.49;38.01;100805.13;5040440;28;20061;-66
2022/06/12 11:32:48;;;;;;;5.68;2.03;;;;;;;27.42;37.66;100804.97;5048041;28;20049;-67
2022/06/12 11:35:39;;;;;;;3.50;1.70;;;;;;;27.01;38.43;100781.53;5044165;28;20504;-67
2022/06/12 11:38:41;;;;;;;3.60;1.80;;;;;;;27.16;38.66;100797.00;5041681;28;20440;-67
2022/06/12 11:41:14;;;;;;;3.47;1.67;;;;;;;27.17;37.09;100789.69;5023590;28;20044;-67
2022/06/12 11:43:55;;;;;;;4.53;1.98;;;;;;;27.21;35.99;100786.47;5046674;28;20041;-70
2022/06/12 11:47:06;;;;;;;2.88;1.50;;;;;;;27.39;36.03;100791.69;5023805;28;20076;-68
2022/06/12 11:49:48;;;;;;;2.80;1.40;;;;;;;27.73;35.49;100779.78;5043275;28;20146;-67
2022/06/12 11:52:47;;;;;;;3.63;1.60;;;;;;;27.90;36.00;100786.88;5043092;28;20055;-68
2022/06/12 11:55:57;;;;;;;4.70;2.50;;;;;;;28.33;35.33;100782.00;5044411;28;20470;-69
2022/06/12 11:58:48;;;;;;;5.65;1.77;;;;;;;28.58;34.34;100780.84;5018571;28;20049;-68
2022/06/12 12:01:31;;;;;;;3.05;1.30;;;;;;;28.42;33.96;100781.78;5016570;28;20520;-67
2022/06/12 12:04:03;;;;;;;1.67;1.30;;;;;;;27.41;35.27;100776.06;5043295;28;20045;-69
2022/06/12 12:07:08;;;;;;;2.80;1.58;;;;;;;26.96;35.91;100773.00;5053006;28;20110;-69
2022/06/12 12:09:42;;;;;;;2.72;1.52;;;;;;;26.77;35.97;100783.13;4979884;28;20760;-68
2022/06/12 12:12:14;;;;;;;3.97;1.60;;;;;;;27.02;35.95;100775.91;5040551;28;21444;-67
2022/06/12 12:14:45;;;;;;;2.97;1.42;;;;;;;27.46;35.62;100770.97;5044530;28;20489;-68